Time;durP1;ratioP1;P1;durP2;ratioP2;P2;SDS_P1;SDS_P2;PMS_P1;PMS_P2;Temp;Humidity;BMP_temperature;BMP_pressure;BME280_temperature;BME280_humidity;BME280_pressure;Samples;Min_cycle;Max_cycle;Signal;HPM_P1;HPM_P2
2023/01/29 00:00:09;;;;;;;40.50;25.52;;;;;;;3.21;62.62;102567.31;5062227;28;20053;-68
2023/01/29 00:02:40;;;;;;;41.13;25.75;;;;;;;3.19;62.57;102572.97;5061185;28;20057;-68
2023/01/29 00:05:07;;;;;;;42.17;25.42;;;;;;;3.02;62.99;102574.56;5069154;28;20056;-68
2023/01/29 00:07:55;;;;;;;41.35;25.88;;;;;;;3.21;63.36;102570.03;5072043;28;20052;-69
2023/01/29 00:10:25;;;;;;;39.95;25.70;;;;;;;3.22;62.47;102569.84;5072012;28;20052;-68
2023/01/29 00:12:55;;;;;;;42.35;26.05;;;;;;;3.18;62.92;102570.47;5073484;28;20044;-68
2023/01/29 00:15:22;;;;;;;42.17;26.98;;;;;;;3.07;62.86;102563.84;5058302;28;20057;-68
2023/01/29 00:17:50;;;;;;;40.33;25.55;;;;;;;3.10;62.90;102568.03;5074765;28;20048;-68
2023/01/29 00:20:17;;;;;;;47.17;26.83;;;;;;;3.34;62.56;102559.06;5073502;28;20059;-69
2023/01/29 00:22:45;;;;;;;48.28;27.00;;;;;;;3.33;62.52;102560.09;5084099;28;20044;-69
2023/01/29 00:25:12;;;;;;;41.15;26.05;;;;;;;2.91;63.08;102566.25;5055829;28;20041;-69
2023/01/29 00:27:40;;;;;;;42.30;25.92;;;;;;;2.72;63.93;102559.84;5074011;28;20052;-68
2023/01/29 00:30:08;;;;;;;42.45;25.08;;;;;;;2.76;64.40;102554.81;5051240;28;20049;-69
2023/01/29 00:32:35;;;;;;;41.60;25.85;;;;;;;2.92;64.15;102551.59;5085918;28;20048;-68
2023/01/29 00:35:02;;;;;;;43.63;26.65;;;;;;;3.05;63.59;102554.25;5077675;28;20051;-68
2023/01/29 00:37:30;;;;;;;41.45;25.27;;;;;;;2.96;63.47;102552.81;5069029;28;20056;-70
2023/01/29 00:39:57;;;;;;;41.85;25.70;;;;;;;2.93;63.99;102553.28;5074885;28;20503;-68
2023/01/29 00:45:11;;;;;;;42.90;26.83;;;;;;;2.83;64.08;102551.00;5062662;28;20060;-67
2023/01/29 00:47:39;;;;;;;43.03;25.98;;;;;;;2.68;64.77;102555.06;5072009;28;20041;-69
2023/01/29 00:50:09;;;;;;;44.70;25.50;;;;;;;2.81;64.99;102542.22;5073789;28;20063;-69
2023/01/29 00:52:39;;;;;;;44.97;25.30;;;;;;;2.73;64.70;102537.06;5070099;28;20041;-69
2023/01/29 00:55:08;;;;;;;43.10;26.02;;;;;;;3.03;64.28;102546.28;5073851;28;20059;-68
2023/01/29 00:57:37;;;;;;;42.92;26.55;;;;;;;3.08;63.43;102551.91;5073656;28;20057;-68
2023/01/29 01:00:07;;;;;;;46.90;27.35;;;;;;;2.96;63.84;102548.22;5057172;28;20052;-69
2023/01/29 01:05:20;;;;;;;38.65;23.83;;;;;;;2.87;63.88;102543.25;5074626;28;20045;-68
2023/01/29 01:07:50;;;;;;;38.85;24.42;;;;;;;2.94;64.15;102536.72;5046516;28;20053;-68
2023/01/29 01:10:25;;;;;;;42.53;26.02;;;;;;;2.91;64.20;102534.41;5037751;28;20048;-69
2023/01/29 01:12:57;;;;;;;39.60;25.52;;;;;;;2.92;64.20;102537.97;5040709;28;20048;-68
2023/01/29 01:15:27;;;;;;;40.42;25.17;;;;;;;2.72;64.67;102540.81;5073102;28;20052;-68
2023/01/29 01:17:56;;;;;;;40.65;24.45;;;;;;;2.86;64.37;102542.41;5074981;28;20068;-68
2023/01/29 01:20:26;;;;;;;43.78;25.45;;;;;;;2.61;65.13;102538.78;5074390;28;20487;-69
2023/01/29 01:22:54;;;;;;;42.22;25.75;;;;;;;2.70;65.38;102532.06;5071759;28;20052;-68
2023/01/29 01:25:22;;;;;;;46.30;27.65;;;;;;;2.53;65.66;102538.19;5073210;28;20056;-69
2023/01/29 01:27:57;;;;;;;43.53;26.67;;;;;;;2.49;66.09;102537.81;5073746;28;20056;-68
2023/01/29 01:30:26;;;;;;;40.65;25.45;;;;;;;2.57;65.90;102544.84;5076574;28;20045;-67
2023/01/29 01:32:53;;;;;;;45.05;26.45;;;;;;;2.58;66.11;102541.09;5078582;28;20055;-68
2023/01/29 01:35:20;;;;;;;42.30;26.08;;;;;;;2.58;65.69;102544.63;5076702;28;20040;-69
2023/01/29 01:37:48;;;;;;;41.83;25.65;;;;;;;2.48;66.40;102547.00;5076215;28;20052;-68
2023/01/29 01:40:18;;;;;;;48.55;27.05;;;;;;;2.36;66.41;102547.88;5076584;28;20059;-68
2023/01/29 01:42:51;;;;;;;47.08;28.02;;;;;;;2.29;66.47;102551.47;5087171;28;20411;-69
2023/01/29 01:45:28;;;;;;;46.88;28.25;;;;;;;2.45;67.05;102543.88;5096745;28;20043;-68
2023/01/29 01:48:22;;;;;;;44.53;25.85;;;;;;;2.68;66.45;102552.34;5089411;28;20411;-69
2023/01/29 01:50:55;;;;;;;45.17;27.02;;;;;;;2.64;66.61;102549.22;5071818;28;20056;-69
2023/01/29 01:53:33;;;;;;;46.70;26.55;;;;;;;3.08;65.41;102548.34;5053672;28;20040;-68
2023/01/29 01:56:04;;;;;;;46.92;27.98;;;;;;;2.14;68.10;102555.50;5060328;28;20055;-68
2023/01/29 01:58:35;;;;;;;52.45;29.67;;;;;;;2.14;68.62;102555.50;5076974;28;20055;-68
2023/01/29 02:01:04;;;;;;;53.28;30.17;;;;;;;1.96;69.35;102549.88;5075985;28;20072;-68
2023/01/29 02:11:57;;;;;;;;;;;;;;;2.11;68.44;102570.31;5062463;28;20061;-68
2023/01/29 02:14:25;;;;;;;52.85;29.20;;;;;;;1.81;69.79;102561.00;5063710;28;19931;-69
2023/01/29 02:16:52;;;;;;;52.50;28.92;;;;;;;1.64;70.35;102567.06;5071476;28;20081;-70
2023/01/29 02:19:38;;;;;;;53.47;29.58;;;;;;;1.65;71.26;102561.41;5059972;28;20064;-69
2023/01/29 02:22:33;;;;;;;58.35;32.22;;;;;;;2.26;70.00;102562.78;5076063;28;20053;-69
2023/01/29 02:25:28;;;;;;;52.83;30.10;;;;;;;2.20;70.03;102562.78;5077575;28;20415;-68
2023/01/29 02:28:14;;;;;;;56.53;32.65;;;;;;;2.32;69.61;102561.06;5077689;28;20044;-67
2023/01/29 02:31:00;;;;;;;51.00;30.35;;;;;;;2.22;70.22;102560.69;5060399;28;20044;-69
2023/01/29 02:34:06;;;;;;;55.60;31.42;;;;;;;1.96;70.93;102555.31;5040374;28;20045;-68
2023/01/29 02:36:52;;;;;;;51.17;30.33;;;;;;;1.77;72.11;102561.59;5071064;28;20049;-67
2023/01/29 02:39:24;;;;;;;51.20;29.42;;;;;;;1.71;72.68;102557.84;5076105;28;20053;-68
2023/01/29 02:42:11;;;;;;;54.60;31.38;;;;;;;1.78;72.34;102564.09;5075083;28;20055;-68
2023/01/29 02:44:58;;;;;;;50.30;30.38;;;;;;;1.83;72.46;102563.50;5050267;28;20049;-70
2023/01/29 02:47:36;;;;;;;50.33;29.45;;;;;;;2.01;72.23;102555.50;5073998;28;20052;-68
2023/01/29 02:50:04;;;;;;;49.83;31.02;;;;;;;1.96;72.15;102555.31;5059928;28;20536;-68
2023/01/29 02:52:38;;;;;;;50.70;30.30;;;;;;;1.90;72.43;102548.84;5076206;28;20071;-68
2023/01/29 02:55:11;;;;;;;49.40;29.25;;;;;;;1.76;73.00;102539.03;5070034;28;20049;-67
2023/01/29 02:57:41;;;;;;;52.13;30.20;;;;;;;1.69;73.49;102546.34;5078283;28;20095;-69
2023/01/29 03:00:21;;;;;;;54.35;30.77;;;;;;;1.59;73.96;102543.22;5095135;28;20063;-67
2023/01/29 03:03:03;;;;;;;54.45;30.83;;;;;;;2.05;73.44;102535.00;5065098;28;20056;-66
2023/01/29 03:05:36;;;;;;;49.88;28.67;;;;;;;2.03;72.92;102532.50;5090856;28;20051;-65
2023/01/29 03:08:06;;;;;;;52.13;30.17;;;;;;;2.04;72.76;102522.50;5042550;28;20045;-68
2023/01/29 03:10:58;;;;;;;47.75;30.23;;;;;;;1.75;73.87;102523.78;5058377;28;20056;-66
2023/01/29 03:13:36;;;;;;;49.78;29.75;;;;;;;1.91;73.46;102530.66;5058056;28;20060;-67
2023/01/29 03:16:10;;;;;;;48.90;29.40;;;;;;;1.87;73.51;102523.97;5075837;28;20597;-66
2023/01/29 03:18:45;;;;;;;51.35;29.00;;;;;;;1.81;73.53;102525.69;5075490;28;20052;-66
2023/01/29 03:32:55;;;;;;;49.05;29.13;;;;;;;1.74;74.92;102522.13;5072079;28;20036;-69
2023/01/29 03:35:38;;;;;;;49.42;28.73;;;;;;;1.62;74.69;102528.41;5074620;28;20533;-69
2023/01/29 03:38:11;;;;;;;49.15;29.90;;;;;;;1.57;75.36;102530.94;5059692;28;20071;-69
2023/01/29 03:40:49;;;;;;;48.20;28.83;;;;;;;1.69;74.55;102526.53;5074267;28;20530;-69
2023/01/29 03:43:33;;;;;;;46.83;28.27;;;;;;;1.61;74.56;102522.13;5042390;28;20052;-68
2023/01/29 03:46:03;;;;;;;46.13;28.45;;;;;;;1.49;75.82;102529.25;5070027;28;20041;-69
2023/01/29 03:48:38;;;;;;;53.35;29.17;;;;;;;1.66;75.43;102525.06;5047821;28;20063;-68
2023/01/29 03:51:19;;;;;;;48.92;29.30;;;;;;;1.75;74.93;102522.94;5074190;28;20049;-66
2023/01/29 03:54:09;;;;;;;46.20;28.40;;;;;;;1.81;74.53;102520.25;5058485;28;20071;-69
2023/01/29 03:56:55;;;;;;;49.58;29.60;;;;;;;1.70;73.93;102520.88;5069571;28;20052;-68
2023/01/29 03:59:45;;;;;;;48.35;27.95;;;;;;;1.60;74.71;102528.63;5054133;28;20059;-68
2023/01/29 04:02:30;;;;;;;49.00;29.75;;;;;;;1.54;74.69;102521.31;5044382;28;20067;-67
2023/01/29 04:05:05;;;;;;;48.80;28.70;;;;;;;1.48;75.12;102524.88;5038821;28;20045;-67
2023/01/29 04:07:37;;;;;;;49.92;28.92;;;;;;;1.42;75.69;102527.56;5058592;28;20068;-67
2023/01/29 04:10:12;;;;;;;47.60;27.63;;;;;;;1.52;74.60;102522.53;5078111;28;20051;-66
2023/01/29 04:12:50;;;;;;;46.38;28.90;;;;;;;1.65;74.65;102519.84;5057772;28;20068;-66
2023/01/29 04:15:19;;;;;;;50.80;28.60;;;;;;;1.66;74.97;102516.91;5054156;28;20053;-67
2023/01/29 04:17:51;;;;;;;47.55;28.35;;;;;;;1.59;75.13;102518.78;5057993;28;20625;-69
2023/01/29 04:20:29;;;;;;;45.78;28.23;;;;;;;1.53;75.15;102522.38;5059028;28;20056;-66
2023/01/29 04:22:57;;;;;;;43.63;27.85;;;;;;;1.92;74.06;102521.44;5060240;28;20052;-70
2023/01/29 04:25:36;;;;;;;48.05;29.50;;;;;;;1.68;73.87;102522.13;5091649;28;20047;-69
2023/01/29 04:28:28;;;;;;;48.55;29.25;;;;;;;1.69;74.84;102521.09;5057593;28;20511;-68
2023/01/29 04:30:59;;;;;;;45.58;27.73;;;;;;;1.67;74.21;102526.75;5056815;28;20048;-66
2023/01/29 04:33:34;;;;;;;44.72;27.15;;;;;;;1.68;74.59;102528.41;5074162;28;20052;-66
2023/01/29 04:36:17;;;;;;;46.63;28.13;;;;;;;1.82;74.83;102526.50;5073834;28;20041;-68
2023/01/29 04:39:06;;;;;;;42.58;25.77;;;;;;;2.21;73.46;102520.97;5083642;28;20048;-68
2023/01/29 04:42:06;;;;;;;46.78;28.67;;;;;;;2.05;72.84;102527.72;5078216;28;20602;-66
2023/01/29 04:44:49;;;;;;;43.83;26.90;;;;;;;1.95;72.97;102527.28;5070566;28;20056;-66
2023/01/29 04:47:19;;;;;;;44.58;27.27;;;;;;;1.70;73.61;102526.31;5056863;28;20408;-66
2023/01/29 04:50:02;;;;;;;47.42;27.38;;;;;;;1.58;74.45;102538.84;5075504;28;20048;-69
2023/01/29 04:52:50;;;;;;;43.42;27.45;;;;;;;1.70;74.48;102529.03;5074681;28;20052;-69
2023/01/29 04:55:27;;;;;;;43.25;27.38;;;;;;;1.36;74.57;102537.38;5054722;28;20053;-67
2023/01/29 04:58:09;;;;;;;45.55;27.08;;;;;;;1.52;75.04;102539.69;5040314;28;20064;-66
2023/01/29 05:00:41;;;;;;;47.72;28.13;;;;;;;1.62;75.23;102537.38;5073507;28;20059;-66
2023/01/29 05:03:11;;;;;;;49.00;28.42;;;;;;;1.70;75.00;102541.75;5040830;28;20049;-68
2023/01/29 05:05:40;;;;;;;46.53;28.02;;;;;;;1.69;74.13;102549.06;5076152;28;20048;-67
2023/01/29 05:08:11;;;;;;;44.85;27.05;;;;;;;1.68;74.59;102541.97;5079442;28;20048;-66
2023/01/29 05:10:38;;;;;;;47.40;28.30;;;;;;;1.48;74.83;102535.75;5078693;28;20677;-66
2023/01/29 05:13:08;;;;;;;46.20;26.80;;;;;;;1.34;75.75;102541.38;5071264;28;20048;-68
2023/01/29 05:15:59;;;;;;;46.60;27.85;;;;;;;1.35;75.85;102543.88;5061978;28;20057;-68
2023/01/29 05:18:28;;;;;;;43.67;26.85;;;;;;;1.27;76.89;102535.09;5077257;28;20061;-66
2023/01/29 05:20:56;;;;;;;45.45;27.42;;;;;;;1.31;76.56;102533.66;5076839;28;20052;-66
2023/01/29 05:23:23;;;;;;;44.85;27.02;;;;;;;1.39;76.07;102528.00;5077437;28;20048;-68
2023/01/29 05:25:51;;;;;;;49.33;27.77;;;;;;;1.43;76.06;102527.34;5060086;28;20052;-69
2023/01/29 05:28:18;;;;;;;46.85;28.50;;;;;;;1.61;76.04;102535.72;5062447;28;20056;-68
2023/01/29 05:30:47;;;;;;;45.97;27.33;;;;;;;1.77;75.56;102524.41;5076856;28;20040;-68
2023/01/29 05:33:23;;;;;;;44.10;27.25;;;;;;;1.85;74.97;102518.75;5078671;28;20040;-68
2023/01/29 05:35:52;;;;;;;42.65;26.75;;;;;;;1.96;74.21;102520.81;5078057;28;20040;-68
2023/01/29 05:38:20;;;;;;;45.22;28.23;;;;;;;1.79;75.06;102519.63;5078908;28;20071;-68
2023/01/29 05:40:48;;;;;;;44.67;27.17;;;;;;;1.58;75.09;102519.84;5093310;28;20048;-69
2023/01/29 05:43:24;;;;;;;45.85;27.27;;;;;;;1.89;75.56;102521.88;5077385;28;20064;-68
2023/01/29 05:45:53;;;;;;;45.17;27.35;;;;;;;2.00;74.01;102526.66;5088860;28;20051;-68
2023/01/29 05:48:21;;;;;;;46.05;28.38;;;;;;;1.88;74.27;102534.63;5061233;28;20053;-68
2023/01/29 05:50:48;;;;;;;50.42;27.65;;;;;;;1.74;74.79;102529.44;5059172;28;20048;-68
2023/01/29 05:53:16;;;;;;;46.90;28.02;;;;;;;1.51;75.78;102532.59;5078001;28;20045;-67
2023/01/29 05:55:44;;;;;;;45.83;27.55;;;;;;;1.90;74.51;102531.72;5076523;28;20416;-68
2023/01/29 05:58:12;;;;;;;45.53;27.08;;;;;;;1.83;74.44;102530.91;5077074;28;20053;-67
2023/01/29 06:00:40;;;;;;;49.10;27.67;;;;;;;1.70;75.06;102528.19;5078199;28;20056;-67
2023/01/29 06:03:07;;;;;;;43.78;26.85;;;;;;;1.77;74.78;102532.56;5078040;28;20049;-67
2023/01/29 06:05:38;;;;;;;48.10;28.27;;;;;;;1.69;74.69;102535.47;5075301;28;20052;-67
2023/01/29 06:08:07;;;;;;;45.63;27.85;;;;;;;1.78;74.80;102527.97;5077950;28;20055;-69
2023/01/29 06:10:34;;;;;;;45.28;27.35;;;;;;;1.76;74.60;102530.88;5077181;28;20051;-67
2023/01/29 06:13:01;;;;;;;42.78;27.02;;;;;;;1.42;75.59;102530.28;5077043;28;20436;-69
2023/01/29 06:15:29;;;;;;;45.10;27.10;;;;;;;1.69;75.29;102537.38;5075196;28;20048;-68
2023/01/29 06:17:56;;;;;;;47.67;27.58;;;;;;;1.62;75.42;102536.56;5068350;28;20048;-68
2023/01/29 06:20:24;;;;;;;42.00;26.55;;;;;;;1.49;75.37;102539.25;5085199;28;20056;-69
2023/01/29 06:22:51;;;;;;;43.83;26.83;;;;;;;1.77;75.38;102545.31;5066470;28;20052;-69
2023/01/29 06:25:18;;;;;;;44.28;27.77;;;;;;;2.03;74.61;102547.97;5072543;28;20496;-68
2023/01/29 06:27:49;;;;;;;46.53;26.77;;;;;;;2.12;73.71;102535.84;5076348;28;20515;-69
2023/01/29 06:30:17;;;;;;;45.53;27.60;;;;;;;2.03;73.49;102553.41;5076296;28;20404;-68
2023/01/29 06:32:44;;;;;;;42.28;25.42;;;;;;;1.76;73.71;102551.81;5075306;28;20052;-69
2023/01/29 06:35:12;;;;;;;43.75;25.83;;;;;;;1.94;74.21;102547.38;5075879;28;20396;-69
2023/01/29 06:37:39;;;;;;;42.65;26.67;;;;;;;2.27;73.46;102552.72;5072470;28;20380;-67
2023/01/29 06:40:07;;;;;;;47.38;27.25;;;;;;;2.21;72.61;102551.69;5067278;28;20176;-70
2023/01/29 06:42:34;;;;;;;46.03;25.95;;;;;;;2.25;72.70;102550.22;5075527;28;20048;-68
2023/01/29 06:45:02;;;;;;;44.45;25.77;;;;;;;2.12;72.58;102555.69;5072722;28;20049;-66
2023/01/29 06:47:29;;;;;;;44.25;27.33;;;;;;;2.27;72.58;102556.28;5061963;28;20048;-66
2023/01/29 06:49:57;;;;;;;42.45;26.85;;;;;;;1.99;73.33;102558.44;5065282;28;20055;-64
2023/01/29 06:52:27;;;;;;;45.75;27.60;;;;;;;1.93;73.71;102562.00;5074680;28;20151;-65
2023/01/29 06:54:55;;;;;;;47.40;27.38;;;;;;;1.77;74.31;102556.16;5076333;28;20055;-64
2023/01/29 06:57:22;;;;;;;41.13;26.20;;;;;;;2.20;73.38;102552.75;5076363;28;20044;-64
2023/01/29 06:59:50;;;;;;;44.95;26.20;;;;;;;2.43;72.69;102554.97;5072683;28;20052;-65
2023/01/29 07:02:17;;;;;;;44.45;25.58;;;;;;;2.45;72.29;102558.31;5072873;28;20049;-64
2023/01/29 07:04:46;;;;;;;46.05;27.60;;;;;;;2.08;72.38;102559.88;5075793;28;20052;-69
2023/01/29 07:07:13;;;;;;;42.20;26.60;;;;;;;2.09;72.97;102563.44;5076611;28;20041;-68
2023/01/29 07:09:41;;;;;;;40.10;25.50;;;;;;;2.12;72.62;102560.28;5077100;28;20056;-69
2023/01/29 07:12:10;;;;;;;45.88;26.50;;;;;;;2.23;72.40;102556.94;5076413;28;20500;-69
2023/01/29 07:14:37;;;;;;;45.28;25.75;;;;;;;2.40;72.23;102558.13;5072517;28;20116;-69
2023/01/29 07:17:04;;;;;;;39.10;25.65;;;;;;;2.49;71.45;102551.41;5063078;28;20051;-70
2023/01/29 07:19:32;;;;;;;41.97;25.88;;;;;;;2.40;71.29;102555.41;5056659;28;20056;-69
2023/01/29 07:22:02;;;;;;;42.30;26.17;;;;;;;2.43;71.56;102544.09;5070113;28;20507;-69
2023/01/29 07:24:29;;;;;;;40.63;26.23;;;;;;;2.35;71.95;102549.78;5069978;28;20053;-69
2023/01/29 07:26:57;;;;;;;45.30;25.98;;;;;;;2.54;70.85;102548.03;5068513;28;20048;-70
2023/01/29 07:29:24;;;;;;;42.33;25.55;;;;;;;2.21;71.77;102553.59;5074969;28;20140;-70
2023/01/29 07:31:51;;;;;;;42.22;25.48;;;;;;;2.11;72.41;102554.00;5074010;28;20064;-65
2023/01/29 07:34:19;;;;;;;43.60;27.05;;;;;;;2.23;72.08;102556.94;5074933;28;20052;-67
2023/01/29 07:36:46;;;;;;;47.10;27.42;;;;;;;2.36;72.14;102558.75;5070694;28;20037;-64
2023/01/29 07:39:13;;;;;;;45.85;26.65;;;;;;;2.20;72.02;102558.19;5074390;28;20131;-66
2023/01/29 07:41:41;;;;;;;43.47;26.42;;;;;;;2.08;72.37;102556.31;5075753;28;20049;-65
2023/01/29 07:44:15;;;;;;;44.38;26.58;;;;;;;1.97;72.77;102551.56;5061612;28;20045;-66
2023/01/29 07:46:42;;;;;;;44.28;26.80;;;;;;;2.14;72.84;102556.28;5056236;28;20048;-65
2023/01/29 07:49:10;;;;;;;42.90;26.95;;;;;;;2.13;72.59;102560.06;5076854;28;20048;-66
2023/01/29 07:51:37;;;;;;;39.65;25.50;;;;;;;2.16;73.15;102564.25;5082838;28;20048;-65
2023/01/29 07:54:04;;;;;;;43.72;26.25;;;;;;;2.35;72.25;102565.25;5073079;28;20067;-66
2023/01/29 07:56:32;;;;;;;41.63;26.15;;;;;;;2.22;72.15;102564.25;5068930;28;20530;-66
2023/01/29 07:58:59;;;;;;;42.97;26.17;;;;;;;2.36;71.97;102562.31;5062845;28;20392;-66
2023/01/29 08:01:26;;;;;;;43.15;26.95;;;;;;;2.15;72.23;102559.84;5071614;28;20051;-65
2023/01/29 08:03:54;;;;;;;44.47;25.42;;;;;;;2.27;72.16;102561.72;5082574;28;20423;-65
2023/01/29 08:06:21;;;;;;;45.20;27.45;;;;;;;1.94;72.94;102557.41;5067847;28;20478;-64
2023/01/29 08:08:48;;;;;;;47.90;27.05;;;;;;;2.23;72.21;102557.75;5072975;28;20055;-65
2023/01/29 08:11:15;;;;;;;50.08;29.27;;;;;;;2.20;72.49;102566.34;5065663;28;20055;-66
2023/01/29 08:13:43;;;;;;;46.08;28.75;;;;;;;2.27;72.58;102561.72;5067052;28;20045;-66
2023/01/29 08:16:10;;;;;;;46.65;28.00;;;;;;;2.05;72.58;102565.75;5061284;28;20045;-66
2023/01/29 08:18:41;;;;;;;50.60;29.15;;;;;;;1.98;73.21;102566.81;5048759;28;20057;-65
2023/01/29 08:21:08;;;;;;;46.90;28.90;;;;;;;1.66;73.94;102568.50;5068026;28;20053;-66
2023/01/29 08:23:42;;;;;;;48.90;30.88;;;;;;;1.86;74.26;102557.63;5071377;28;20800;-66
2023/01/29 08:26:10;;;;;;;47.17;27.98;;;;;;;2.06;73.66;102558.41;5053364;28;20669;-65
2023/01/29 08:28:37;;;;;;;46.28;28.10;;;;;;;2.04;73.20;102558.63;5064003;28;20419;-66
2023/01/29 08:31:12;;;;;;;48.10;29.10;;;;;;;2.09;73.33;102558.00;5073250;28;20059;-65
2023/01/29 08:33:40;;;;;;;45.55;28.75;;;;;;;2.00;73.24;102557.41;5070979;28;20511;-65
2023/01/29 08:36:08;;;;;;;45.25;27.85;;;;;;;2.11;72.89;102555.91;5074816;28;20047;-65
2023/01/29 08:38:35;;;;;;;44.60;26.58;;;;;;;2.53;72.53;102554.53;5057685;28;20451;-65
2023/01/29 08:41:03;;;;;;;40.67;26.67;;;;;;;2.69;71.52;102557.56;5068599;28;20356;-65
2023/01/29 08:43:31;;;;;;;43.55;28.52;;;;;;;2.69;71.06;102556.72;5053275;28;20127;-66
2023/01/29 08:45:58;;;;;;;44.90;29.05;;;;;;;2.59;71.24;102559.94;5058916;28;20049;-66
2023/01/29 08:48:26;;;;;;;45.70;29.45;;;;;;;2.09;72.79;102566.16;5054456;28;20056;-66
2023/01/29 08:50:56;;;;;;;49.60;30.77;;;;;;;2.61;72.64;102565.16;5060915;28;20056;-66
2023/01/29 08:53:24;;;;;;;49.67;30.58;;;;;;;2.83;71.73;102561.91;5084447;28;20055;-67
2023/01/29 08:55:52;;;;;;;51.20;31.15;;;;;;;2.79;71.24;102563.38;5063286;28;20052;-65
2023/01/29 08:58:20;;;;;;;45.63;29.65;;;;;;;2.93;71.34;102575.84;5073094;28;20049;-66
2023/01/29 09:00:48;;;;;;;46.95;29.70;;;;;;;3.01;70.99;102580.22;5059528;28;20041;-67
2023/01/29 09:03:15;;;;;;;52.20;31.60;;;;;;;3.18;70.88;102590.38;5039859;28;20506;-65
2023/01/29 09:05:43;;;;;;;49.55;29.52;;;;;;;3.62;69.92;102594.88;5060194;28;20072;-65
2023/01/29 09:08:10;;;;;;;51.78;30.23;;;;;;;3.74;68.79;102598.56;5058940;28;20061;-65
2023/01/29 09:10:37;;;;;;;47.60;28.65;;;;;;;3.71;69.08;102596.28;5055972;28;20122;-65
2023/01/29 09:13:05;;;;;;;43.65;28.08;;;;;;;3.80;68.27;102599.56;5057322;28;20497;-66
2023/01/29 09:15:32;;;;;;;48.45;29.58;;;;;;;3.47;68.08;102605.25;5065056;28;20059;-67
2023/01/29 09:18:03;;;;;;;44.15;28.83;;;;;;;3.47;68.59;102600.66;5070473;28;20044;-67
2023/01/29 09:20:31;;;;;;;43.60;28.70;;;;;;;3.78;67.74;102591.63;5062775;28;20045;-66
2023/01/29 09:23:05;;;;;;;39.25;24.92;;;;;;;3.77;67.23;102598.09;5059292;28;20048;-67
2023/01/29 09:25:33;;;;;;;41.85;25.00;;;;;;;3.52;67.41;102597.28;5056578;28;20044;-66
2023/01/29 09:28:00;;;;;;;36.55;23.83;;;;;;;3.78;67.23;102591.63;5064809;28;20053;-67
2023/01/29 09:30:28;;;;;;;35.85;23.83;;;;;;;3.95;67.51;102594.59;5044128;28;20504;-65
2023/01/29 09:32:55;;;;;;;40.33;23.58;;;;;;;4.11;68.03;102586.69;5060349;28;20052;-65
2023/01/29 09:35:23;;;;;;;38.95;23.63;;;;;;;4.06;66.61;102589.22;5067412;28;20048;-65
2023/01/29 09:37:50;;;;;;;36.85;24.23;;;;;;;3.82;66.00;102592.81;5071007;28;20040;-65
2023/01/29 09:40:28;;;;;;;38.55;24.58;;;;;;;3.80;65.97;102583.22;5063424;28;20064;-66
2023/01/29 09:43:23;;;;;;;36.25;24.13;;;;;;;3.79;66.10;102590.53;5036277;28;20494;-65
2023/01/29 09:46:05;;;;;;;38.55;24.38;;;;;;;3.89;65.71;102593.59;5067964;28;20060;-66
2023/01/29 09:48:34;;;;;;;39.42;24.35;;;;;;;3.74;66.34;102589.53;5060131;28;20048;-65
2023/01/29 09:51:05;;;;;;;37.67;23.87;;;;;;;4.23;66.06;102584.03;5051392;28;20036;-66
2023/01/29 09:53:39;;;;;;;35.88;22.77;;;;;;;4.03;65.54;102588.84;5059821;28;20049;-64
2023/01/29 09:56:18;;;;;;;35.92;23.52;;;;;;;3.80;65.35;102589.47;5052456;28;20044;-65
2023/01/29 09:58:45;;;;;;;34.75;22.52;;;;;;;3.92;65.60;102593.16;5050454;28;20523;-65
2023/01/29 10:01:27;;;;;;;38.88;23.42;;;;;;;4.10;64.95;102590.44;5062068;28;20052;-66
2023/01/29 10:04:13;;;;;;;37.63;23.63;;;;;;;4.02;64.98;102590.75;5063919;28;20044;-66
2023/01/29 10:07:08;;;;;;;38.13;24.48;;;;;;;4.03;64.89;102595.13;5055845;28;20052;-65
2023/01/29 10:09:51;;;;;;;37.47;24.05;;;;;;;4.14;64.77;102596.28;5062510;28;20052;-65
2023/01/29 10:12:21;;;;;;;37.45;24.30;;;;;;;3.79;65.96;102584.25;5060354;28;20049;-65
2023/01/29 10:15:02;;;;;;;38.03;24.58;;;;;;;4.15;65.22;102582.44;5057785;28;20049;-68
2023/01/29 10:18:00;;;;;;;34.42;21.88;;;;;;;4.35;65.64;102574.88;5069101;28;20069;-65
2023/01/29 10:20:46;;;;;;;32.00;21.38;;;;;;;4.34;64.36;102581.38;5057211;28;20056;-65
2023/01/29 10:23:13;;;;;;;33.17;22.98;;;;;;;4.61;64.47;102584.63;5034100;28;20064;-65
2023/01/29 10:25:41;;;;;;;37.20;23.92;;;;;;;4.20;64.64;102576.31;5065479;28;20436;-65
2023/01/29 10:28:48;;;;;;;36.60;24.27;;;;;;;4.35;63.49;102583.06;5053694;28;20060;-66
2023/01/29 10:31:37;;;;;;;34.75;23.13;;;;;;;4.62;63.50;102569.91;5050673;28;20566;-68
2023/01/29 10:34:27;;;;;;;39.45;25.83;;;;;;;4.38;63.90;102573.56;5066126;28;20048;-65
2023/01/29 10:36:56;;;;;;;36.90;25.35;;;;;;;4.54;63.15;102568.34;5067545;28;20043;-66
2023/01/29 10:39:25;;;;;;;39.17;25.13;;;;;;;4.46;63.14;102557.72;5061347;28;20051;-66
2023/01/29 10:42:02;;;;;;;36.95;25.95;;;;;;;4.70;62.92;102553.25;5055091;28;20550;-67
2023/01/29 10:45:00;;;;;;;37.33;26.15;;;;;;;4.76;63.32;102546.03;5054362;28;20566;-66
2023/01/29 10:47:43;;;;;;;40.35;25.05;;;;;;;4.63;63.24;102540.75;5060311;28;20045;-65
2023/01/29 10:50:31;;;;;;;39.58;25.77;;;;;;;4.99;62.28;102543.38;5067324;28;20538;-66
2023/01/29 10:53:21;;;;;;;38.95;25.20;;;;;;;4.92;62.15;102534.44;5058610;28;20404;-66
2023/01/29 10:56:13;;;;;;;41.55;25.45;;;;;;;5.05;62.23;102537.84;5062217;28;20052;-65
2023/01/29 10:58:58;;;;;;;40.60;25.48;;;;;;;5.27;61.42;102529.94;5063154;28;20064;-66
2023/01/29 11:01:26;;;;;;;40.58;26.08;;;;;;;5.66;60.68;102526.56;5072474;28;20044;-66
2023/01/29 11:04:00;;;;;;;39.28;26.55;;;;;;;5.22;60.46;102524.34;5056929;28;20057;-66
2023/01/29 11:06:34;;;;;;;41.28;26.52;;;;;;;5.25;61.15;102521.13;5069977;28;20064;-66
2023/01/29 11:09:11;;;;;;;38.17;24.50;;;;;;;5.47;60.53;102517.59;5057162;28;20087;-66
2023/01/29 11:11:56;;;;;;;41.83;27.13;;;;;;;5.39;60.32;102520.69;5064830;28;20417;-65
2023/01/29 11:14:44;;;;;;;45.97;27.20;;;;;;;5.47;60.50;102514.88;5060096;28;20053;-65
2023/01/29 11:17:15;;;;;;;37.47;25.10;;;;;;;5.83;59.86;102516.59;5060885;28;20049;-66
2023/01/29 11:19:45;;;;;;;34.40;23.92;;;;;;;5.91;59.08;102508.03;5039464;28;20526;-65
2023/01/29 11:22:23;;;;;;;37.25;24.38;;;;;;;5.18;60.59;102510.31;5064951;28;20057;-65
2023/01/29 11:25:17;;;;;;;38.75;25.70;;;;;;;5.46;60.65;102506.91;5056564;28;20056;-66
2023/01/29 11:27:46;;;;;;;36.42;24.85;;;;;;;5.98;60.00;102492.31;5054052;28;20492;-66
2023/01/29 11:30:26;;;;;;;36.05;22.52;;;;;;;7.39;56.13;102492.34;5067768;28;20044;-67
2023/01/29 11:33:08;;;;;;;;;;;;;;;7.18;54.72;102493.09;5068430;28;20059;-65
2023/01/29 11:35:36;;;;;;;27.85;18.75;;;;;;;5.72;57.18;102495.53;5060063;28;21206;-65
2023/01/29 11:38:15;;;;;;;32.95;22.25;;;;;;;5.81;58.46;102493.25;5073502;28;20036;-65
2023/01/29 11:40:43;;;;;;;28.17;19.00;;;;;;;5.64;58.52;102498.63;5059772;28;20064;-64
2023/01/29 11:43:29;;;;;;;26.27;17.27;;;;;;;5.54;59.00;102485.53;5074285;28;20079;-66
2023/01/29 11:46:00;;;;;;;20.35;12.25;;;;;;;5.29;58.16;102490.41;5069090;28;20051;-66
2023/01/29 11:48:39;;;;;;;21.00;13.30;;;;;;;5.26;58.79;102487.31;5069279;28;20037;-66
2023/01/29 11:51:07;;;;;;;19.80;13.18;;;;;;;5.09;59.17;102489.88;5057190;28;20401;-64
2023/01/29 11:53:40;;;;;;;24.38;14.35;;;;;;;4.69;59.77;102487.97;5048327;28;20052;-65
2023/01/29 11:56:34;;;;;;;23.85;15.52;;;;;;;4.75;61.04;102487.03;5057963;28;20051;-64
2023/01/29 11:59:04;;;;;;;24.25;15.00;;;;;;;4.67;60.27;102488.22;5060833;28;20072;-67
2023/01/29 12:01:38;;;;;;;24.88;15.48;;;;;;;4.80;61.25;102490.75;5070638;28;20052;-64
2023/01/29 12:04:17;;;;;;;22.42;12.48;;;;;;;4.48;61.28;102490.13;5064418;28;20055;-65
2023/01/29 12:06:47;;;;;;;18.90;12.45;;;;;;;4.30;62.07;102490.16;5073473;28;20060;-65
2023/01/29 12:09:18;;;;;;;19.48;10.25;;;;;;;4.17;61.48;102490.31;5066878;28;20037;-65